createdAt,value
2018-12-26T00:00:58.033Z,71.91
2018-12-26T00:06:01.903Z,72.49
2018-12-26T00:11:05.683Z,72.28
2018-12-26T00:16:09.410Z,72.34
2018-12-26T00:21:13.171Z,72.24
2018-12-26T00:26:16.905Z,72.33
2018-12-26T00:31:20.650Z,72.60
2018-12-26T00:36:24.390Z,72.50
2018-12-26T00:41:28.136Z,72.83
2018-12-26T00:46:31.969Z,72.76
2018-12-26T00:51:35.753Z,72.79
2018-12-26T00:56:39.565Z,72.63
2018-12-26T01:01:43.310Z,72.24
2018-12-26T01:06:47.028Z,73.12
2018-12-26T01:11:50.793Z,72.73
2018-12-26T01:16:54.566Z,73.53
2018-12-26T01:21:58.314Z,73.18
2018-12-26T01:27:02.048Z,73.78
2018-12-26T01:32:05.776Z,73.67
2018-12-26T01:37:09.625Z,73.73
2018-12-26T01:42:13.384Z,73.49
2018-12-26T01:47:17.243Z,73.52
2018-12-26T01:52:21.007Z,73.76
2018-12-26T01:57:24.756Z,73.71
2018-12-26T02:02:28.521Z,73.70
2018-12-26T02:07:32.476Z,73.72
2018-12-26T02:12:36.243Z,73.78
2018-12-26T02:17:40.002Z,73.41
2018-12-26T02:22:43.750Z,73.92
2018-12-26T02:27:47.510Z,73.61
2018-12-26T02:32:51.311Z,73.67
2018-12-26T02:37:55.114Z,73.63
2018-12-26T02:42:58.921Z,74.28
2018-12-26T02:48:02.649Z,73.57
2018-12-26T02:53:06.373Z,73.67
2018-12-26T02:58:10.117Z,73.60
2018-12-26T03:03:13.991Z,73.74
2018-12-26T03:08:17.738Z,73.74
2018-12-26T03:13:21.521Z,73.41
2018-12-26T03:18:25.363Z,73.24
2018-12-26T03:23:29.234Z,73.12
2018-12-26T03:28:32.979Z,73.42
2018-12-26T03:33:36.729Z,73.41
2018-12-26T03:38:40.467Z,73.13
2018-12-26T03:43:44.310Z,72.81
2018-12-26T03:48:48.061Z,72.43
2018-12-26T03:53:51.878Z,71.69
2018-12-26T03:58:55.693Z,70.26
2018-12-26T04:03:59.555Z,70.11
2018-12-26T04:09:04.118Z,69.46
2018-12-26T04:14:07.854Z,69.09
2018-12-26T04:19:11.634Z,68.36
2018-12-26T04:24:15.537Z,68.91
2018-12-26T04:29:19.374Z,69.34
2018-12-26T04:34:23.171Z,69.31
2018-12-26T04:39:26.912Z,69.20
2018-12-26T04:44:30.692Z,69.59
2018-12-26T04:49:36.499Z,69.23
2018-12-26T04:54:40.425Z,69.01
2018-12-26T04:59:44.185Z,68.19
2018-12-26T05:04:47.948Z,69.09
2018-12-26T05:09:51.943Z,68.03
2018-12-26T05:14:55.676Z,67.76
2018-12-26T05:19:59.656Z,67.44
2018-12-26T05:25:03.480Z,67.57
2018-12-26T05:30:07.499Z,67.24
2018-12-26T05:35:11.223Z,67.64
2018-12-26T05:40:15.064Z,67.10
2018-12-26T05:45:18.797Z,67.15
2018-12-26T05:50:22.540Z,67.50
2018-12-26T05:55:26.376Z,67.15
2018-12-26T06:00:30.274Z,67.21
2018-12-26T06:06:29.263Z,67.32
2018-12-26T06:11:32.985Z,67.06
2018-12-26T06:16:36.842Z,67.37
2018-12-26T06:21:40.574Z,67.97
2018-12-26T06:26:44.344Z,68.19
2018-12-26T06:31:48.114Z,68.94
2018-12-26T06:36:51.895Z,70.09
2018-12-26T06:41:55.630Z,71.13
2018-12-26T06:46:59.525Z,71.99
2018-12-26T06:52:03.306Z,71.93
2018-12-26T06:57:07.017Z,72.06
2018-12-26T07:02:10.748Z,74.29
2018-12-26T07:07:14.486Z,74.98
2018-12-26T07:12:18.219Z,75.50
2018-12-26T07:17:22.014Z,74.61
2018-12-26T07:22:25.757Z,75.35
2018-12-26T07:27:29.668Z,74.43
2018-12-26T07:32:33.463Z,74.76
2018-12-26T07:37:37.176Z,75.30
2018-12-26T07:42:40.924Z,75.50
2018-12-26T07:47:44.701Z,75.28
2018-12-26T07:52:48.492Z,75.53
2018-12-26T07:57:52.258Z,76.05
2018-12-26T08:02:56.015Z,77.06
2018-12-26T08:07:59.763Z,77.59
2018-12-26T08:13:03.522Z,77.58
2018-12-26T08:18:07.307Z,80.67
2018-12-26T08:23:11.032Z,81.27
2018-12-26T08:28:14.777Z,81.18
2018-12-26T08:33:18.526Z,81.76
2018-12-26T08:38:22.366Z,81.18
2018-12-26T08:43:26.121Z,80.37
2018-12-26T08:48:29.970Z,80.57
2018-12-26T08:53:33.718Z,80.41
2018-12-26T08:58:37.452Z,80.40
2018-12-26T09:03:41.250Z,80.05
2018-12-26T09:08:45.008Z,78.98
2018-12-26T09:13:48.752Z,79.08
2018-12-26T09:18:52.500Z,78.92
2018-12-26T09:23:56.249Z,79.05
2018-12-26T09:29:00.128Z,78.71
2018-12-26T09:34:03.845Z,78.41
2018-12-26T09:39:08.246Z,78.55
2018-12-26T09:44:11.986Z,77.97
2018-12-26T09:49:15.720Z,77.41
2018-12-26T09:54:19.547Z,77.91
2018-12-26T09:59:23.332Z,77.96
2018-12-26T10:04:27.180Z,78.75
2018-12-26T10:09:30.955Z,78.51
2018-12-26T10:14:34.748Z,78.55
2018-12-26T10:19:41.330Z,79.30
2018-12-26T10:24:45.161Z,83.20
2018-12-26T10:29:48.934Z,83.20
2018-12-26T10:34:52.683Z,81.83
2018-12-26T10:39:56.419Z,81.32
2018-12-26T10:45:00.179Z,81.33
2018-12-26T10:50:04.969Z,81.43
2018-12-26T10:55:08.699Z,80.64
2018-12-26T11:00:13.706Z,80.02
2018-12-26T11:05:17.442Z,81.63
2018-12-26T11:10:21.170Z,81.25
2018-12-26T11:15:24.941Z,80.19
2018-12-26T11:20:28.797Z,80.04
2018-12-26T11:25:32.538Z,81.13
2018-12-26T11:30:36.279Z,82.54
2018-12-26T11:35:40.003Z,84.07
2018-12-26T11:40:43.817Z,85.12
2018-12-26T11:45:47.561Z,86.00
2018-12-26T11:50:51.294Z,86.79
2018-12-26T11:55:55.028Z,86.23
2018-12-26T12:00:58.749Z,86.20
2018-12-26T12:06:02.539Z,86.20
2018-12-26T12:11:06.351Z,85.41
2018-12-26T12:16:10.091Z,84.77
2018-12-26T12:21:13.842Z,84.41
2018-12-26T12:26:17.580Z,84.15
2018-12-26T12:31:21.328Z,83.92
2018-12-26T12:36:25.124Z,84.67
2018-12-26T12:41:28.919Z,84.70
2018-12-26T12:46:32.735Z,83.72
2018-12-26T12:51:36.559Z,84.92
2018-12-26T12:56:40.294Z,85.32
2018-12-26T13:01:44.107Z,85.32
2018-12-26T13:06:47.870Z,85.36
2018-12-26T13:11:51.659Z,86.57
2018-12-26T13:16:55.384Z,87.17
2018-12-26T13:21:59.112Z,86.88
2018-12-26T13:27:02.874Z,86.01
2018-12-26T13:32:06.616Z,85.35
2018-12-26T13:37:10.372Z,85.48
2018-12-26T13:42:14.121Z,85.77
2018-12-26T13:47:17.920Z,86.03
2018-12-26T13:52:21.634Z,86.52
2018-12-26T13:57:25.454Z,86.12
2018-12-26T14:02:30.035Z,85.92
2018-12-26T14:07:33.768Z,85.87
2018-12-26T14:12:37.509Z,85.80
2018-12-26T14:17:41.242Z,85.58
2018-12-26T14:22:45.048Z,85.29
2018-12-26T14:27:48.802Z,85.65
2018-12-26T14:32:52.650Z,85.82
2018-12-26T14:37:56.359Z,86.22
2018-12-26T14:43:00.085Z,86.11
2018-12-26T14:48:03.877Z,85.83
2018-12-26T14:53:07.935Z,85.35
2018-12-26T14:58:11.676Z,85.25
2018-12-26T15:03:15.505Z,85.27
2018-12-26T15:08:19.339Z,85.53
2018-12-26T15:13:23.148Z,85.31
2018-12-26T15:18:27.017Z,85.20
2018-12-26T15:23:30.750Z,84.98
2018-12-26T15:28:34.492Z,84.82
2018-12-26T15:33:38.264Z,84.81
2018-12-26T15:38:41.983Z,84.80
2018-12-26T15:43:45.821Z,84.53
2018-12-26T15:48:49.533Z,84.35
2018-12-26T15:53:53.390Z,84.65
2018-12-26T15:58:57.159Z,84.79
2018-12-26T16:04:00.895Z,84.83
2018-12-26T16:09:06.700Z,85.01
2018-12-26T16:14:10.445Z,84.90
2018-12-26T16:19:14.191Z,84.70
2018-12-26T16:24:17.916Z,84.50
2018-12-26T16:29:21.662Z,84.45
2018-12-26T16:34:25.474Z,84.23
2018-12-26T16:39:35.715Z,84.16
2018-12-26T16:44:34.800Z,84.22
2018-12-26T16:49:38.559Z,83.92
2018-12-26T16:54:42.447Z,84.14
2018-12-26T16:59:46.207Z,84.37
2018-12-26T17:04:49.993Z,84.18
2018-12-26T17:09:53.876Z,84.18
2018-12-26T17:14:57.638Z,84.11
2018-12-26T17:20:03.792Z,83.76
2018-12-26T17:25:07.658Z,83.99
2018-12-26T17:31:03.791Z,84.21
2018-12-26T17:41:07.399Z,83.91
2018-12-26T17:46:11.154Z,83.93
2018-12-26T17:51:18.039Z,83.98
2018-12-26T17:56:37.376Z,83.50
2018-12-26T18:01:59.073Z,83.74
2018-12-26T18:07:02.796Z,83.73
2018-12-26T18:12:11.815Z,83.59
2018-12-26T18:17:12.001Z,83.62
2018-12-26T18:22:15.892Z,83.31
2018-12-26T18:27:19.630Z,83.17
2018-12-26T18:32:23.402Z,83.52
2018-12-26T18:37:27.191Z,83.56
2018-12-26T18:42:30.951Z,83.56
2018-12-26T18:47:34.679Z,83.92
2018-12-26T18:52:38.433Z,83.45
2018-12-26T18:57:42.173Z,83.56
2018-12-26T19:02:45.939Z,83.49
2018-12-26T19:07:49.661Z,83.40
2018-12-26T19:12:53.383Z,83.58
2018-12-26T19:17:57.116Z,83.25
2018-12-26T19:23:00.841Z,83.29
2018-12-26T19:28:04.581Z,83.43
2018-12-26T19:33:08.329Z,83.11
2018-12-26T19:38:12.062Z,83.24
2018-12-26T19:43:15.804Z,83.53
2018-12-26T19:48:19.604Z,83.40
2018-12-26T19:53:23.499Z,83.45
2018-12-26T19:58:29.189Z,83.42
2018-12-26T20:03:32.707Z,83.50
2018-12-26T20:08:36.451Z,83.29
2018-12-26T20:13:40.192Z,83.25
2018-12-26T20:18:43.937Z,83.19
2018-12-26T20:23:47.681Z,83.21
2018-12-26T20:28:51.448Z,83.42
2018-12-26T20:33:55.247Z,83.34
2018-12-26T20:38:59.089Z,83.27
2018-12-26T20:44:02.808Z,82.97
2018-12-26T20:49:06.554Z,83.39
2018-12-26T20:54:10.272Z,82.96
2018-12-26T20:59:14.032Z,83.08
2018-12-26T21:04:17.812Z,82.91
2018-12-26T21:09:21.667Z,83.12
2018-12-26T21:14:25.429Z,83.30
2018-12-26T21:19:29.188Z,83.32
2018-12-26T21:24:32.906Z,83.45
2018-12-26T21:29:36.628Z,83.40
2018-12-26T21:34:40.438Z,83.33
2018-12-26T21:39:44.507Z,83.23
2018-12-26T21:44:48.246Z,83.48
2018-12-26T21:49:51.985Z,83.24
2018-12-26T21:54:55.720Z,83.10
2018-12-26T21:59:59.435Z,83.10
2018-12-26T22:05:03.176Z,83.25
2018-12-26T22:10:06.949Z,83.21
2018-12-26T22:15:10.688Z,82.81
2018-12-26T22:20:14.418Z,82.99
2018-12-26T22:25:18.145Z,82.71
2018-12-26T22:30:21.877Z,82.81
2018-12-26T22:35:25.688Z,82.59
2018-12-26T22:40:29.417Z,82.28
2018-12-26T22:45:33.163Z,82.32
2018-12-26T22:50:36.967Z,82.51
2018-12-26T22:55:40.769Z,82.42
2018-12-26T23:00:47.000Z,81.83
2018-12-26T23:05:50.761Z,81.93
2018-12-26T23:10:54.546Z,82.32
2018-12-26T23:15:58.296Z,81.88
2018-12-26T23:21:02.169Z,81.59
2018-12-26T23:26:07.176Z,81.99
2018-12-26T23:31:11.031Z,81.54
2018-12-26T23:36:14.868Z,81.72
2018-12-26T23:41:18.623Z,81.70
2018-12-26T23:46:22.361Z,81.70
2018-12-26T23:51:26.177Z,81.45
2018-12-26T23:56:29.961Z,81.62
